sensor_id;sensor_type;location;lat;lon;timestamp;pressure;altitude;pressure_sealevel;temperature
69186;BMP280;56298;49.246;9.410;2023-04-01T00:01:51;97991.00;;;10.14
69186;BMP280;56298;49.246;9.410;2023-04-01T00:04:16;97986.66;;;10.13
69186;BMP280;56298;49.246;9.410;2023-04-01T00:06:41;97989.06;;;10.22
69186;BMP280;56298;49.246;9.410;2023-04-01T00:09:07;97993.28;;;10.15
69186;BMP280;56298;49.246;9.410;2023-04-01T00:11:32;97990.97;;;10.18
69186;BMP280;56298;49.246;9.410;2023-04-01T00:13:57;97988.63;;;10.16
69186;BMP280;56298;49.246;9.410;2023-04-01T00:16:23;97980.84;;;10.22
69186;BMP280;56298;49.246;9.410;2023-04-01T00:18:50;97983.53;;;10.18
69186;BMP280;56298;49.246;9.410;2023-04-01T00:21:16;97984.78;;;10.24
69186;BMP280;56298;49.246;9.410;2023-04-01T00:23:41;97982.41;;;10.23
69186;BMP280;56298;49.246;9.410;2023-04-01T00:26:06;97983.97;;;10.24
69186;BMP280;56298;49.246;9.410;2023-04-01T00:28:33;97978.47;;;10.20
69186;BMP280;56298;49.246;9.410;2023-04-01T00:31:04;97986.31;;;10.25
69186;BMP280;56298;49.246;9.410;2023-04-01T00:33:29;97977.28;;;10.18
69186;BMP280;56298;49.246;9.410;2023-04-01T00:35:55;97981.59;;;10.22
69186;BMP280;56298;49.246;9.410;2023-04-01T00:38:21;97993.38;;;10.23
69186;BMP280;56298;49.246;9.410;2023-04-01T00:40:46;97992.56;;;10.22
69186;BMP280;56298;49.246;9.410;2023-04-01T00:43:17;97986.69;;;10.27
69186;BMP280;56298;49.246;9.410;2023-04-01T00:45:45;97997.25;;;10.25
69186;BMP280;56298;49.246;9.410;2023-04-01T00:48:20;97991.41;;;10.23
69186;BMP280;56298;49.246;9.410;2023-04-01T00:50:54;97992.22;;;10.31
69186;BMP280;56298;49.246;9.410;2023-04-01T00:53:21;97988.25;;;10.21
69186;BMP280;56298;49.246;9.410;2023-04-01T00:55:51;97991.38;;;10.20
69186;BMP280;56298;49.246;9.410;2023-04-01T00:58:21;97988.25;;;10.25
69186;BMP280;56298;49.246;9.410;2023-04-01T01:00:49;97987.88;;;10.19
69186;BMP280;56298;49.246;9.410;2023-04-01T01:03:16;97989.06;;;10.22
69186;BMP280;56298;49.246;9.410;2023-04-01T01:06:02;97986.28;;;10.18
69186;BMP280;56298;49.246;9.410;2023-04-01T01:08:39;97983.59;;;10.22
69186;BMP280;56298;49.246;9.410;2023-04-01T01:11:10;97982.34;;;10.15
69186;BMP280;56298;49.246;9.410;2023-04-01T01:13:48;97980.81;;;10.14
69186;BMP280;56298;49.246;9.410;2023-04-01T01:16:27;97977.69;;;10.20
69186;BMP280;56298;49.246;9.410;2023-04-01T01:19:57;97983.22;;;10.23
69186;BMP280;56298;49.246;9.410;2023-04-01T01:22:22;97981.63;;;10.26
69186;BMP280;56298;49.246;9.410;2023-04-01T01:28:14;97976.94;;;10.23
69186;BMP280;56298;49.246;9.410;2023-04-01T01:36:20;97978.88;;;10.15
69186;BMP280;56298;49.246;9.410;2023-04-01T01:38:47;97980.78;;;10.18
69186;BMP280;56298;49.246;9.410;2023-04-01T01:41:15;97976.13;;;10.15
69186;BMP280;56298;49.246;9.410;2023-04-01T01:43:43;97968.69;;;10.19
69186;BMP280;56298;49.246;9.410;2023-04-01T01:46:12;97967.09;;;10.18
69186;BMP280;56298;49.246;9.410;2023-04-01T01:48:40;97957.31;;;10.13
69186;BMP280;56298;49.246;9.410;2023-04-01T01:51:07;97970.22;;;10.13
69186;BMP280;56298;49.246;9.410;2023-04-01T01:53:32;97969.44;;;10.16
69186;BMP280;56298;49.246;9.410;2023-04-01T01:55:57;97970.19;;;10.09
69186;BMP280;56298;49.246;9.410;2023-04-01T02:00:55;97966.69;;;10.05
69186;BMP280;56298;49.246;9.410;2023-04-01T02:03:23;97962.78;;;10.10
69186;BMP280;56298;49.246;9.410;2023-04-01T02:05:50;97951.03;;;10.09
69186;BMP280;56298;49.246;9.410;2023-04-01T02:08:21;97945.94;;;10.11
69186;BMP280;56298;49.246;9.410;2023-04-01T02:10:59;97949.47;;;10.15
69186;BMP280;56298;49.246;9.410;2023-04-01T02:13:30;97944.75;;;10.09
69186;BMP280;56298;49.246;9.410;2023-04-01T02:15:59;97947.91;;;10.07
69186;BMP280;56298;49.246;9.410;2023-04-01T02:18:26;97938.13;;;10.06
69186;BMP280;56298;49.246;9.410;2023-04-01T02:20:53;97948.66;;;10.08
69186;BMP280;56298;49.246;9.410;2023-04-01T02:23:20;97946.34;;;10.10
69186;BMP280;56298;49.246;9.410;2023-04-01T02:25:46;97949.06;;;10.06
69186;BMP280;56298;49.246;9.410;2023-04-01T02:28:13;97946.34;;;10.10
69186;BMP280;56298;49.246;9.410;2023-04-01T02:30:42;97943.22;;;10.04
69186;BMP280;56298;49.246;9.410;2023-04-01T02:33:08;97937.34;;;10.06
69186;BMP280;56298;49.246;9.410;2023-04-01T02:35:35;97942.44;;;10.07
69186;BMP280;56298;49.246;9.410;2023-04-01T02:38:02;97946.72;;;10.08
69186;BMP280;56298;49.246;9.410;2023-04-01T02:40:28;97956.13;;;10.07
69186;BMP280;56298;49.246;9.410;2023-04-01T02:42:53;97952.22;;;10.08
69186;BMP280;56298;49.246;9.410;2023-04-01T02:45:18;97954.50;;;9.99
69186;BMP280;56298;49.246;9.410;2023-04-01T02:47:43;97941.59;;;9.96
69186;BMP280;56298;49.246;9.410;2023-04-01T02:50:09;97944.75;;;9.98
69186;BMP280;56298;49.246;9.410;2023-04-01T02:52:35;97943.19;;;10.00
69186;BMP280;56298;49.246;9.410;2023-04-01T02:55:01;97953.72;;;10.02
69186;BMP280;56298;49.246;9.410;2023-04-01T02:57:26;97950.19;;;9.94
69186;BMP280;56298;49.246;9.410;2023-04-01T02:59:51;97943.56;;;9.95
69186;BMP280;56298;49.246;9.410;2023-04-01T03:02:17;97937.69;;;9.97
69186;BMP280;56298;49.246;9.410;2023-04-01T03:04:42;97940.03;;;9.95
69186;BMP280;56298;49.246;9.410;2023-04-01T03:07:08;97952.16;;;10.01
69186;BMP280;56298;49.246;9.410;2023-04-01T03:09:35;97955.28;;;9.99
69186;BMP280;56298;49.246;9.410;2023-04-01T03:12:01;97958.06;;;10.03
69186;BMP280;56298;49.246;9.410;2023-04-01T03:14:26;97945.94;;;10.11
69186;BMP280;56298;49.246;9.410;2023-04-01T03:16:51;97948.69;;;10.11
69186;BMP280;56298;49.246;9.410;2023-04-01T03:19:16;97949.13;;;10.13
69186;BMP280;56298;49.246;9.410;2023-04-01T03:21:41;97953.78;;;10.09
69186;BMP280;56298;49.246;9.410;2023-04-01T03:24:07;97951.81;;;10.06
69186;BMP280;56298;49.246;9.410;2023-04-01T03:26:33;97956.53;;;10.06
69186;BMP280;56298;49.246;9.410;2023-04-01T03:28:58;97950.22;;;9.98
69186;BMP280;56298;49.246;9.410;2023-04-01T03:31:23;97957.66;;;10.01
69186;BMP280;56298;49.246;9.410;2023-04-01T03:33:49;97961.94;;;10.02
69186;BMP280;56298;49.246;9.410;2023-04-01T03:36:15;97957.66;;;10.01
69186;BMP280;56298;49.246;9.410;2023-04-01T03:38:40;97950.97;;;9.95
69186;BMP280;56298;49.246;9.410;2023-04-01T03:41:06;97947.81;;;9.93
69186;BMP280;56298;49.246;9.410;2023-04-01T03:43:32;97955.72;;;9.98
69186;BMP280;56298;49.246;9.410;2023-04-01T03:45:58;97954.16;;;10.04
69186;BMP280;56298;49.246;9.410;2023-04-01T03:48:24;97952.59;;;10.07
69186;BMP280;56298;49.246;9.410;2023-04-01T03:50:50;97951.78;;;10.02
69186;BMP280;56298;49.246;9.410;2023-04-01T03:53:15;97948.25;;;9.98
69186;BMP280;56298;49.246;9.410;2023-04-01T03:55:41;97955.72;;;9.98
69186;BMP280;56298;49.246;9.410;2023-04-01T03:58:07;97954.50;;;9.99
69186;BMP280;56298;49.246;9.410;2023-04-01T04:00:32;97958.44;;;9.98
69186;BMP280;56298;49.246;9.410;2023-04-01T04:02:58;97952.97;;;9.98
69186;BMP280;56298;49.246;9.410;2023-04-01T04:05:25;97960.00;;;9.99
69186;BMP280;56298;49.246;9.410;2023-04-01T04:07:51;97955.28;;;9.96
69186;BMP280;56298;49.246;9.410;2023-04-01T04:10:17;97945.50;;;9.95
69186;BMP280;56298;49.246;9.410;2023-04-01T04:12:42;97951.78;;;9.95
69186;BMP280;56298;49.246;9.410;2023-04-01T04:15:08;97943.97;;;9.97
69186;BMP280;56298;49.246;9.410;2023-04-01T04:17:34;97952.94;;;9.94
69186;BMP280;56298;49.246;9.410;2023-04-01T04:19:59;97956.06;;;10.00
69186;BMP280;56298;49.246;9.410;2023-04-01T04:22:25;97963.94;;;10.05
69186;BMP280;56298;49.246;9.410;2023-04-01T04:24:50;97965.09;;;10.08
69186;BMP280;56298;49.246;9.410;2023-04-01T04:27:15;97956.53;;;10.06
69186;BMP280;56298;49.246;9.410;2023-04-01T04:29:41;97960.00;;;10.02
69186;BMP280;56298;49.246;9.410;2023-04-01T04:32:06;97960.75;;;9.99
69186;BMP280;56298;49.246;9.410;2023-04-01T04:34:32;97967.78;;;9.93
69186;BMP280;56298;49.246;9.410;2023-04-01T04:36:57;97963.06;;;9.90
69186;BMP280;56298;49.246;9.410;2023-04-01T04:39:23;97965.41;;;9.84
69186;BMP280;56298;49.246;9.410;2023-04-01T04:41:48;97957.59;;;9.86
69186;BMP280;56298;49.246;9.410;2023-04-01T04:44:13;97954.53;;;9.95
69186;BMP280;56298;49.246;9.410;2023-04-01T04:46:39;97963.94;;;9.98
69186;BMP280;56298;49.246;9.410;2023-04-01T04:49:05;97956.44;;;9.91
69186;BMP280;56298;49.246;9.410;2023-04-01T04:51:30;97968.59;;;9.94
69186;BMP280;56298;49.246;9.410;2023-04-01T04:53:59;97963.50;;;9.96
69186;BMP280;56298;49.246;9.410;2023-04-01T04:56:24;97957.25;;;9.99
69186;BMP280;56298;49.246;9.410;2023-04-01T04:58:51;97950.97;;;9.98
69186;BMP280;56298;49.246;9.410;2023-04-01T05:01:16;97956.03;;;9.85
69186;BMP280;56298;49.246;9.410;2023-04-01T05:03:42;97959.59;;;9.97
69186;BMP280;56298;49.246;9.410;2023-04-01T05:06:09;97945.88;;;9.93
69186;BMP280;56298;49.246;9.410;2023-04-01T05:08:35;97954.53;;;9.95
69186;BMP280;56298;49.246;9.410;2023-04-01T05:11:01;97944.72;;;9.94
69186;BMP280;56298;49.246;9.410;2023-04-01T05:13:27;97950.16;;;9.91
69186;BMP280;56298;49.246;9.410;2023-04-01T05:15:52;97955.63;;;9.91
69186;BMP280;56298;49.246;9.410;2023-04-01T05:18:18;97946.63;;;9.86
69186;BMP280;56298;49.246;9.410;2023-04-01T05:20:50;97945.88;;;9.90
69186;BMP280;56298;49.246;9.410;2023-04-01T05:23:16;97949.78;;;9.88
69186;BMP280;56298;49.246;9.410;2023-04-01T05:25:42;97943.53;;;9.92
69186;BMP280;56298;49.246;9.410;2023-04-01T05:28:08;97940.81;;;9.99
69186;BMP280;56298;49.246;9.410;2023-04-01T05:30:33;97940.84;;;9.95
69186;BMP280;56298;49.246;9.410;2023-04-01T05:32:58;97941.63;;;10.03
69186;BMP280;56298;49.246;9.410;2023-04-01T05:35:23;97937.69;;;9.97
69186;BMP280;56298;49.246;9.410;2023-04-01T05:37:49;97933.81;;;10.01
69186;BMP280;56298;49.246;9.410;2023-04-01T05:40:14;97942.44;;;10.07
69186;BMP280;56298;49.246;9.410;2023-04-01T05:42:39;97949.09;;;10.10
69186;BMP280;56298;49.246;9.410;2023-04-01T05:45:05;97942.06;;;10.16
69186;BMP280;56298;49.246;9.410;2023-04-01T05:47:31;97942.06;;;10.16
69186;BMP280;56298;49.246;9.410;2023-04-01T05:49:56;97947.59;;;10.23
69186;BMP280;56298;49.246;9.410;2023-04-01T05:52:21;97941.69;;;10.21
69186;BMP280;56298;49.246;9.410;2023-04-01T05:54:46;97935.78;;;10.15
69186;BMP280;56298;49.246;9.410;2023-04-01T05:57:12;97933.47;;;10.21
69186;BMP280;56298;49.246;9.410;2023-04-01T05:59:37;97932.66;;;10.10
69186;BMP280;56298;49.246;9.410;2023-04-01T06:02:02;97929.91;;;10.06
69186;BMP280;56298;49.246;9.410;2023-04-01T06:04:34;97943.19;;;10.00
69186;BMP280;56298;49.246;9.410;2023-04-01T06:07:10;97934.94;;;9.97
69186;BMP280;56298;49.246;9.410;2023-04-01T06:09:36;97937.31;;;9.95
69186;BMP280;56298;49.246;9.410;2023-04-01T06:15:01;97929.78;;;9.77
69186;BMP280;56298;49.246;9.410;2023-04-01T06:31:43;97941.81;;;9.62
69186;BMP280;56298;49.246;9.410;2023-04-01T06:37:15;97954.59;;;9.39
69186;BMP280;56298;49.246;9.410;2023-04-01T06:42:51;97946.75;;;9.38
69186;BMP280;56298;49.246;9.410;2023-04-01T06:45:31;97944.44;;;9.43
69186;BMP280;56298;49.246;9.410;2023-04-01T06:54:11;97949.56;;;9.52
69186;BMP280;56298;49.246;9.410;2023-04-01T06:56:41;97944.47;;;9.47
69186;BMP280;56298;49.246;9.410;2023-04-01T06:59:15;97939.34;;;9.42
69186;BMP280;56298;49.246;9.410;2023-04-01T07:01:45;97956.47;;;9.31
69186;BMP280;56298;49.246;9.410;2023-04-01T07:04:46;97952.06;;;9.20
69186;BMP280;56298;49.246;9.410;2023-04-01T07:07:34;97950.88;;;9.17
69186;BMP280;56298;49.246;9.410;2023-04-01T07:10:04;97953.94;;;9.08
69186;BMP280;56298;49.246;9.410;2023-04-01T07:15:04;97950.47;;;9.11
69186;BMP280;56298;49.246;9.410;2023-04-01T07:17:33;97957.50;;;9.16
69186;BMP280;56298;49.246;9.410;2023-04-01T07:20:05;97949.06;;;9.32
69186;BMP280;56298;49.246;9.410;2023-04-01T07:22:39;97953.41;;;9.44
69186;BMP280;56298;49.246;9.410;2023-04-01T07:25:13;97959.25;;;9.39
69186;BMP280;56298;49.246;9.410;2023-04-01T07:27:41;97962.00;;;9.39
69186;BMP280;56298;49.246;9.410;2023-04-01T07:30:14;97952.31;;;9.49
69186;BMP280;56298;49.246;9.410;2023-04-01T07:32:46;97947.94;;;9.44
69186;BMP280;56298;49.246;9.410;2023-04-01T07:35:42;97951.13;;;9.53
69186;BMP280;56298;49.246;9.410;2023-04-01T07:41:14;97960.53;;;9.56
69186;BMP280;56298;49.246;9.410;2023-04-01T07:49:18;97965.47;;;9.36
69186;BMP280;56298;49.246;9.410;2023-04-01T07:54:34;97968.25;;;9.43
69186;BMP280;56298;49.246;9.410;2023-04-01T08:02:36;97953.06;;;9.53
69186;BMP280;56298;49.246;9.410;2023-04-01T08:05:12;97960.53;;;9.56
69186;BMP280;56298;49.246;9.410;2023-04-01T08:10:57;97966.44;;;9.58
69186;BMP280;56298;49.246;9.410;2023-04-01T08:16:28;97976.59;;;9.57
69186;BMP280;56298;49.246;9.410;2023-04-01T08:22:07;97970.75;;;9.66
69186;BMP280;56298;49.246;9.410;2023-04-01T08:24:28;97978.59;;;9.71
69186;BMP280;56298;49.246;9.410;2023-04-01T08:26:59;97977.91;;;9.82
69186;BMP280;56298;49.246;9.410;2023-04-01T08:29:42;97984.97;;;9.86
69186;BMP280;56298;49.246;9.410;2023-04-01T08:32:16;97991.59;;;9.82
69186;BMP280;56298;49.246;9.410;2023-04-01T08:34:46;97986.03;;;9.71
69186;BMP280;56298;49.246;9.410;2023-04-01T08:37:20;98000.38;;;9.50
69186;BMP280;56298;49.246;9.410;2023-04-01T08:45:23;97979.84;;;9.78
69186;BMP280;56298;49.246;9.410;2023-04-01T08:51:14;97971.28;;;9.90
69186;BMP280;56298;49.246;9.410;2023-04-01T09:07:48;97980.50;;;9.64
69186;BMP280;56298;49.246;9.410;2023-04-01T09:15:25;97980.59;;;9.74
69186;BMP280;56298;49.246;9.410;2023-04-01T09:21:14;97982.94;;;9.72
69186;BMP280;56298;49.246;9.410;2023-04-01T09:29:05;97986.19;;;10.00
69186;BMP280;56298;49.246;9.410;2023-04-01T09:37:26;97988.63;;;10.12
69186;BMP280;56298;49.246;9.410;2023-04-01T09:45:58;97990.13;;;10.02
69186;BMP280;56298;49.246;9.410;2023-04-01T09:55:00;97988.13;;;9.92
69186;BMP280;56298;49.246;9.410;2023-04-01T10:00:50;97997.84;;;9.82
69186;BMP280;56298;49.246;9.410;2023-04-01T10:03:34;98010.75;;;9.82
69186;BMP280;56298;49.246;9.410;2023-04-01T10:06:21;98012.31;;;9.79
69186;BMP280;56298;49.246;9.410;2023-04-01T10:09:24;98006.03;;;9.82
69186;BMP280;56298;49.246;9.410;2023-04-01T10:15:22;98013.53;;;9.93
69186;BMP280;56298;49.246;9.410;2023-04-01T10:20:54;98018.59;;;9.91
69186;BMP280;56298;49.246;9.410;2023-04-01T10:26:14;98008.47;;;9.91
69186;BMP280;56298;49.246;9.410;2023-04-01T10:34:55;98008.91;;;10.04
69186;BMP280;56298;49.246;9.410;2023-04-01T10:40:57;98004.69;;;10.25
69186;BMP280;56298;49.246;9.410;2023-04-01T10:44:11;98000.03;;;10.29
69186;BMP280;56298;49.246;9.410;2023-04-01T10:47:13;98000.41;;;10.24
69186;BMP280;56298;49.246;9.410;2023-04-01T10:50:39;98007.53;;;10.47
69186;BMP280;56298;49.246;9.410;2023-04-01T10:59:11;98002.38;;;10.34
69186;BMP280;56298;49.246;9.410;2023-04-01T11:05:07;98005.53;;;10.36
69186;BMP280;56298;49.246;9.410;2023-04-01T11:18:49;98011.03;;;10.36
69186;BMP280;56298;49.246;9.410;2023-04-01T11:24:22;98012.63;;;10.45
69186;BMP280;56298;49.246;9.410;2023-04-01T11:30:19;98016.13;;;10.45
69186;BMP280;56298;49.246;9.410;2023-04-01T11:33:15;98018.09;;;10.52
69186;BMP280;56298;49.246;9.410;2023-04-01T11:35:49;98025.56;;;10.55
69186;BMP280;56298;49.246;9.410;2023-04-01T11:41:24;98025.91;;;10.42
69186;BMP280;56298;49.246;9.410;2023-04-01T11:44:18;98028.28;;;10.48
69186;BMP280;56298;49.246;9.410;2023-04-01T11:50:08;98032.63;;;10.56
69186;BMP280;56298;49.246;9.410;2023-04-01T12:01:26;98026.75;;;10.65
69186;BMP280;56298;49.246;9.410;2023-04-01T12:22:19;98032.34;;;11.08
69186;BMP280;56298;49.246;9.410;2023-04-01T12:25:06;98033.53;;;11.15
69186;BMP280;56298;49.246;9.410;2023-04-01T12:27:52;98038.63;;;11.16
69186;BMP280;56298;49.246;9.410;2023-04-01T12:36:04;98038.59;;;11.34
69186;BMP280;56298;49.246;9.410;2023-04-01T12:44:04;98054.69;;;11.61
69186;BMP280;56298;49.246;9.410;2023-04-01T12:55:46;98053.88;;;11.61
69186;BMP280;56298;49.246;9.410;2023-04-01T12:58:36;98056.66;;;11.39
69186;BMP280;56298;49.246;9.410;2023-04-01T13:04:18;98060.59;;;11.56
69186;BMP280;56298;49.246;9.410;2023-04-01T13:07:27;98062.16;;;11.64
69186;BMP280;56298;49.246;9.410;2023-04-01T13:12:43;98060.88;;;12.02
69186;BMP280;56298;49.246;9.410;2023-04-01T13:23:46;98061.38;;;11.64
69186;BMP280;56298;49.246;9.410;2023-04-01T13:26:27;98080.19;;;11.51
69186;BMP280;56298;49.246;9.410;2023-04-01T13:31:55;98070.78;;;11.41
69186;BMP280;56298;49.246;9.410;2023-04-01T13:34:30;98073.13;;;11.28
69186;BMP280;56298;49.246;9.410;2023-04-01T13:37:04;98072.69;;;11.26
69186;BMP280;56298;49.246;9.410;2023-04-01T13:39:50;98057.81;;;11.23
69186;BMP280;56298;49.246;9.410;2023-04-01T13:43:02;98070.38;;;11.32
69186;BMP280;56298;49.246;9.410;2023-04-01T13:45:42;98069.59;;;11.46
69186;BMP280;56298;49.246;9.410;2023-04-01T13:48:31;98075.09;;;11.49
69186;BMP280;56298;49.246;9.410;2023-04-01T13:59:35;98082.53;;;11.49
69186;BMP280;56298;49.246;9.410;2023-04-01T14:02:29;98076.66;;;11.47
69186;BMP280;56298;49.246;9.410;2023-04-01T14:08:07;98084.88;;;11.36
69186;BMP280;56298;49.246;9.410;2023-04-01T14:11:07;98090.75;;;11.41
69186;BMP280;56298;49.246;9.410;2023-04-01T14:13:53;98089.56;;;11.50
69186;BMP280;56298;49.246;9.410;2023-04-01T14:19:53;98092.72;;;11.55
69186;BMP280;56298;49.246;9.410;2023-04-01T14:30:52;98102.50;;;11.31
69186;BMP280;56298;49.246;9.410;2023-04-01T14:33:46;98099.41;;;11.40
69186;BMP280;56298;49.246;9.410;2023-04-01T14:36:28;98098.22;;;11.37
69186;BMP280;56298;49.246;9.410;2023-04-01T14:39:29;98103.69;;;11.34
69186;BMP280;56298;49.246;9.410;2023-04-01T14:47:33;98112.25;;;11.10
69186;BMP280;56298;49.246;9.410;2023-04-01T14:52:39;98117.75;;;11.14
69186;BMP280;56298;49.246;9.410;2023-04-01T14:55:32;98119.34;;;11.26
69186;BMP280;56298;49.246;9.410;2023-04-01T14:58:11;98118.19;;;11.23
69186;BMP280;56298;49.246;9.410;2023-04-01T15:09:19;98123.66;;;11.16
69186;BMP280;56298;49.246;9.410;2023-04-01T15:12:17;98127.22;;;11.24
69186;BMP280;56298;49.246;9.410;2023-04-01T15:18:10;98128.78;;;11.25
69186;BMP280;56298;49.246;9.410;2023-04-01T15:23:40;98135.78;;;11.08
69186;BMP280;56298;49.246;9.410;2023-04-01T15:26:33;98135.78;;;11.04
69186;BMP280;56298;49.246;9.410;2023-04-01T15:37:37;98145.19;;;11.07
69186;BMP280;56298;49.246;9.410;2023-04-01T15:40:31;98152.22;;;11.01
69186;BMP280;56298;49.246;9.410;2023-04-01T15:43:29;98158.47;;;11.01
69186;BMP280;56298;49.246;9.410;2023-04-01T15:51:43;98159.25;;;10.94
69186;BMP280;56298;49.246;9.410;2023-04-01T16:00:41;98161.59;;;10.96
69186;BMP280;56298;49.246;9.410;2023-04-01T16:03:36;98167.84;;;10.89
69186;BMP280;56298;49.246;9.410;2023-04-01T16:09:06;98175.25;;;10.85
69186;BMP280;56298;49.246;9.410;2023-04-01T16:11:40;98179.59;;;10.93
69186;BMP280;56298;49.246;9.410;2023-04-01T16:14:44;98171.00;;;10.95
69186;BMP280;56298;49.246;9.410;2023-04-01T16:17:45;98174.09;;;10.82
69186;BMP280;56298;49.246;9.410;2023-04-01T16:20:40;98176.06;;;10.89
69186;BMP280;56298;49.246;9.410;2023-04-01T16:23:51;98179.22;;;10.95
69186;BMP280;56298;49.246;9.410;2023-04-01T16:26:29;98180.44;;;10.97
69186;BMP280;56298;49.246;9.410;2023-04-01T16:29:10;98187.84;;;10.90
69186;BMP280;56298;49.246;9.410;2023-04-01T16:31:53;98199.94;;;10.81
69186;BMP280;56298;49.246;9.410;2023-04-01T16:35:25;98183.88;;;10.80
69186;BMP280;56298;49.246;9.410;2023-04-01T16:37:49;98183.88;;;10.80
69186;BMP280;56298;49.246;9.410;2023-04-01T16:43:45;98193.28;;;10.86
69186;BMP280;56298;49.246;9.410;2023-04-01T16:46:30;98200.72;;;10.82
69186;BMP280;56298;49.246;9.410;2023-04-01T16:49:14;98193.63;;;10.74
69186;BMP280;56298;49.246;9.410;2023-04-01T16:54:27;98208.09;;;10.67
69186;BMP280;56298;49.246;9.410;2023-04-01T16:57:04;98215.13;;;10.68
69186;BMP280;56298;49.246;9.410;2023-04-01T16:59:38;98208.09;;;10.70
69186;BMP280;56298;49.246;9.410;2023-04-01T17:15:43;98214.31;;;10.56
69186;BMP280;56298;49.246;9.410;2023-04-01T17:18:44;98231.50;;;10.50
69186;BMP280;56298;49.246;9.410;2023-04-01T17:21:44;98231.88;;;10.55
69186;BMP280;56298;49.246;9.410;2023-04-01T17:24:38;98228.00;;;10.56
69186;BMP280;56298;49.246;9.410;2023-04-01T17:30:13;98237.78;;;10.61
69186;BMP280;56298;49.246;9.410;2023-04-01T17:46:26;98246.72;;;10.51
69186;BMP280;56298;49.246;9.410;2023-04-01T17:48:41;98252.97;;;10.44
69186;BMP280;56298;49.246;9.410;2023-04-01T17:51:19;98265.47;;;10.41
69186;BMP280;56298;49.246;9.410;2023-04-01T17:54:21;98268.59;;;10.43
69186;BMP280;56298;49.246;9.410;2023-04-01T17:57:09;98258.75;;;10.32
69186;BMP280;56298;49.246;9.410;2023-04-01T17:59:38;98272.78;;;10.26
69186;BMP280;56298;49.246;9.410;2023-04-01T18:02:22;98274.34;;;10.27
69186;BMP280;56298;49.246;9.410;2023-04-01T18:05:05;98275.47;;;10.19
69186;BMP280;56298;49.246;9.410;2023-04-01T18:10:55;98294.94;;;10.07
69186;BMP280;56298;49.246;9.410;2023-04-01T18:21:34;98302.84;;;9.78
69186;BMP280;56298;49.246;9.410;2023-04-01T18:24:16;98311.06;;;9.78
69186;BMP280;56298;49.246;9.410;2023-04-01T18:26:49;98308.97;;;9.67
69186;BMP280;56298;49.246;9.410;2023-04-01T18:31:46;98310.13;;;9.66
69186;BMP280;56298;49.246;9.410;2023-04-01T18:34:19;98313.66;;;9.67
69186;BMP280;56298;49.246;9.410;2023-04-01T18:36:55;98315.19;;;9.64
69186;BMP280;56298;49.246;9.410;2023-04-01T18:39:34;98317.75;;;9.50
69186;BMP280;56298;49.246;9.410;2023-04-01T18:42:08;98320.16;;;9.55
69186;BMP280;56298;49.246;9.410;2023-04-01T18:44:50;98332.66;;;9.56
69186;BMP280;56298;49.246;9.410;2023-04-01T18:50:27;98332.59;;;9.49
69186;BMP280;56298;49.246;9.410;2023-04-01T18:53:27;98335.00;;;9.54
69186;BMP280;56298;49.246;9.410;2023-04-01T18:56:05;98336.91;;;9.50
69186;BMP280;56298;49.246;9.410;2023-04-01T19:03:45;98363.00;;;9.43
69186;BMP280;56298;49.246;9.410;2023-04-01T19:06:18;98368.06;;;9.41
69186;BMP280;56298;49.246;9.410;2023-04-01T19:08:45;98365.06;;;9.50
69186;BMP280;56298;49.246;9.410;2023-04-01T19:11:29;98369.38;;;9.51
69186;BMP280;56298;49.246;9.410;2023-04-01T19:14:15;98368.94;;;9.49
69186;BMP280;56298;49.246;9.410;2023-04-01T19:20:00;98377.47;;;9.44
69186;BMP280;56298;49.246;9.410;2023-04-01T19:25:54;98376.91;;;9.58
69186;BMP280;56298;49.246;9.410;2023-04-01T19:31:23;98389.22;;;9.75
69186;BMP280;56298;49.246;9.410;2023-04-01T19:36:59;98394.75;;;9.79
69186;BMP280;56298;49.246;9.410;2023-04-01T19:56:02;98392.91;;;9.90
69186;BMP280;56298;49.246;9.410;2023-04-01T20:01:10;98387.91;;;9.96
69186;BMP280;56298;49.246;9.410;2023-04-01T20:03:50;98397.25;;;9.91
69186;BMP280;56298;49.246;9.410;2023-04-01T20:06:24;98400.72;;;9.88
69186;BMP280;56298;49.246;9.410;2023-04-01T20:09:11;98405.00;;;9.89
69186;BMP280;56298;49.246;9.410;2023-04-01T20:16:54;98406.88;;;9.81
69186;BMP280;56298;49.246;9.410;2023-04-01T20:19:45;98413.13;;;9.78
69186;BMP280;56298;49.246;9.410;2023-04-01T20:22:29;98414.72;;;9.79
69186;BMP280;56298;49.246;9.410;2023-04-01T20:25:01;98410.50;;;9.89
69186;BMP280;56298;49.246;9.410;2023-04-01T20:27:39;98414.00;;;9.86
69186;BMP280;56298;49.246;9.410;2023-04-01T20:47:10;98433.78;;;9.76
69186;BMP280;56298;49.246;9.410;2023-04-01T20:49:54;98439.38;;;9.83
69186;BMP280;56298;49.246;9.410;2023-04-01T20:52:41;98440.38;;;9.71
69186;BMP280;56298;49.246;9.410;2023-04-01T20:55:28;98444.84;;;9.79
69186;BMP280;56298;49.246;9.410;2023-04-01T20:58:05;98449.38;;;9.71
69186;BMP280;56298;49.246;9.410;2023-04-01T21:03:57;98464.38;;;9.81
69186;BMP280;56298;49.246;9.410;2023-04-01T21:06:39;98461.06;;;9.95
69186;BMP280;56298;49.246;9.410;2023-04-01T21:14:35;98473.53;;;9.93
69186;BMP280;56298;49.246;9.410;2023-04-01T21:17:12;98474.78;;;9.99
69186;BMP280;56298;49.246;9.410;2023-04-01T21:19:55;98473.25;;;10.01
69186;BMP280;56298;49.246;9.410;2023-04-01T21:22:35;98474.69;;;9.92
69186;BMP280;56298;49.246;9.410;2023-04-01T21:25:26;98482.97;;;9.95
69186;BMP280;56298;49.246;9.410;2023-04-01T21:45:37;98494.19;;;9.86
69186;BMP280;56298;49.246;9.410;2023-04-01T22:12:17;98515.91;;;9.76
69186;BMP280;56298;49.246;9.410;2023-04-01T22:14:56;98515.22;;;9.79
69186;BMP280;56298;49.246;9.410;2023-04-01T22:25:51;98518.25;;;10.00
69186;BMP280;56298;49.246;9.410;2023-04-01T22:31:03;98518.50;;;9.92
69186;BMP280;56298;49.246;9.410;2023-04-01T22:33:39;98528.75;;;9.98
69186;BMP280;56298;49.246;9.410;2023-04-01T22:36:40;98524.84;;;9.99
69186;BMP280;56298;49.246;9.410;2023-04-01T22:50:25;98534.53;;;10.20
69186;BMP280;56298;49.246;9.410;2023-04-01T22:53:08;98538.38;;;10.15
69186;BMP280;56298;49.246;9.410;2023-04-01T22:55:41;98542.59;;;10.09
69186;BMP280;56298;49.246;9.410;2023-04-01T22:58:11;98550.03;;;10.09
69186;BMP280;56298;49.246;9.410;2023-04-01T23:00:59;98550.28;;;9.96
69186;BMP280;56298;49.246;9.410;2023-04-01T23:03:36;98543.88;;;9.88
69186;BMP280;56298;49.246;9.410;2023-04-01T23:06:05;98540.03;;;9.93
69186;BMP280;56298;49.246;9.410;2023-04-01T23:08:57;98547.38;;;9.85
69186;BMP280;56298;49.246;9.410;2023-04-01T23:12:03;98549.75;;;9.87
69186;BMP280;56298;49.246;9.410;2023-04-01T23:14:50;98557.97;;;9.87